モントリオール/トルドー の空港の天気 - METARとTAF

モントリオール・ピエール・エリオット・トルドー国際空港 ( CYUL / YUL ) - カナダ ケベック州モントリオール
飛行場実況気象(Metar)
観測時間10/16 03:00 EDT (10/16 07:00 UTC)
風向・風速東南東 3m/s
視程10km以上
天気現象
少しの雲 雲底高度 3050m
全天の4割程度の雲 雲底高度 4570m
全天の8割程度の雲 雲底高度 7320m
気温9℃
湿度66%
気圧1015.7hPa
METARCYUL 160700Z 12005KT 15SM FEW100 SCT150 BKN240 09/03 A2999 RMK AC1AC3CI4 AC TR SLP157
過去の天気等 Google飛行場航空写真 Wunderground天気予報

過去48時間のMETAR

飛行場予報(TAF)
発表時間: 10/16 01:38 EDT (10/16 05:38 UTC)
予報対象時間: 16日2時 EDT ~ 17日2時 EDT
風向・風速不定 2m/s
視程10km以上
少しの雲 雲底高度 2440m
全天の4割程度の雲 雲底高度 5180m
全天の8割程度の雲 雲底高度 7320m
16日6時 EDT から
風向・風速東 4m/s
視程10km以上
全天の4割程度の雲 雲底高度 2440m
全天の8割程度の雲 雲底高度 3660m
16日9時 EDT ~ 16日11時 EDT に徐々に
風向・風速東 5m/s 瞬間風速 10m/s
16日15時 EDT から
風向・風速東南東 8m/s 瞬間風速 13m/s
視程10km以上
全天の4割程度の雲 雲底高度 1220m
全天の8割程度の雲 雲底高度 2440m
全天を覆う雲 雲底高度 6100m
16日19時 EDT から
風向・風速東南東 6m/s 瞬間風速 11m/s
視程10km以上
天気現象弱いしゅう雨
全天の8割程度の雲 雲底高度 1220m
全天を覆う雲 雲底高度 2440m
16日23時 EDT から
風向・風速東 5m/s 瞬間風速 10m/s
視程10km以上
天気現象雨 もや
全天の4割程度の雲 雲底高度 300m
全天を覆う雲 雲底高度 910m
TAF CYUL 160538Z 1606/1706 VRB03KT P6SM FEW080 SCT170 BKN240
FM161000 10008KT P6SM SCT080 BKN120
BECMG 1613/1615 10010G20KT
FM161900 12015G25KT P6SM SCT040 BKN080 OVC200
FM162300 11012G22KT P6SM -SHRA BKN040 OVC080
FM170300 09010G20KT 6SM RA BR SCT010 OVC030 RMK NXT FCST BY 160900Z